sensor_id;sensor_type;location;lat;lon;timestamp;pressure;altitude;pressure_sealevel;temperature;humidity
63715;BME280;49858;48.956;9.076;2023-03-13T00:02:04;98270.66;;;9.36;100.00
63715;BME280;49858;48.956;9.076;2023-03-13T00:04:32;98274.06;;;9.14;100.00
63715;BME280;49858;48.956;9.076;2023-03-13T00:07:01;98270.31;;;9.22;100.00
63715;BME280;49858;48.956;9.076;2023-03-13T00:09:29;98270.88;;;9.47;100.00
63715;BME280;49858;48.956;9.076;2023-03-13T00:11:57;98259.41;;;9.61;100.00
63715;BME280;49858;48.956;9.076;2023-03-13T00:14:25;98260.38;;;9.33;100.00
63715;BME280;49858;48.956;9.076;2023-03-13T00:16:53;98256.50;;;9.54;100.00
63715;BME280;49858;48.956;9.076;2023-03-13T00:19:20;98260.09;;;9.38;100.00
63715;BME280;49858;48.956;9.076;2023-03-13T00:21:48;98256.47;;;9.34;100.00
63715;BME280;49858;48.956;9.076;2023-03-13T00:24:17;98256.81;;;9.13;100.00
63715;BME280;49858;48.956;9.076;2023-03-13T00:26:45;98244.88;;;9.60;100.00
63715;BME280;49858;48.956;9.076;2023-03-13T00:29:13;98243.94;;;9.72;100.00
63715;BME280;49858;48.956;9.076;2023-03-13T00:31:41;98245.38;;;9.85;100.00
63715;BME280;49858;48.956;9.076;2023-03-13T00:34:08;98241.91;;;9.69;100.00
63715;BME280;49858;48.956;9.076;2023-03-13T00:36:37;98243.00;;;9.84;100.00
63715;BME280;49858;48.956;9.076;2023-03-13T00:39:05;98233.09;;;9.79;100.00
63715;BME280;49858;48.956;9.076;2023-03-13T00:41:37;98231.94;;;9.80;100.00
63715;BME280;49858;48.956;9.076;2023-03-13T00:44:05;98224.63;;;9.88;100.00
63715;BME280;49858;48.956;9.076;2023-03-13T00:46:33;98223.25;;;9.59;100.00
63715;BME280;49858;48.956;9.076;2023-03-13T00:49:02;98218.75;;;10.09;100.00
63715;BME280;49858;48.956;9.076;2023-03-13T00:51:32;98226.19;;;10.08;100.00
63715;BME280;49858;48.956;9.076;2023-03-13T00:54:01;98216.69;;;10.25;100.00
63715;BME280;49858;48.956;9.076;2023-03-13T00:56:31;98213.50;;;10.23;100.00
63715;BME280;49858;48.956;9.076;2023-03-13T00:59:00;98199.19;;;10.14;100.00
63715;BME280;49858;48.956;9.076;2023-03-13T01:01:30;98211.38;;;10.13;100.00
63715;BME280;49858;48.956;9.076;2023-03-13T01:04:00;98193.56;;;10.07;100.00
63715;BME280;49858;48.956;9.076;2023-03-13T01:06:31;98198.69;;;9.85;100.00
63715;BME280;49858;48.956;9.076;2023-03-13T01:08:59;98201.16;;;10.13;100.00
63715;BME280;49858;48.956;9.076;2023-03-13T01:11:29;98188.69;;;9.96;100.00
63715;BME280;49858;48.956;9.076;2023-03-13T01:13:59;98179.22;;;9.94;100.00
63715;BME280;49858;48.956;9.076;2023-03-13T01:16:30;98178.53;;;9.58;100.00
63715;BME280;49858;48.956;9.076;2023-03-13T01:19:00;98174.63;;;9.20;100.00
63715;BME280;49858;48.956;9.076;2023-03-13T01:21:29;98166.09;;;9.26;100.00
63715;BME280;49858;48.956;9.076;2023-03-13T01:23:57;98168.28;;;9.75;100.00
63715;BME280;49858;48.956;9.076;2023-03-13T01:26:25;98161.28;;;9.38;100.00
63715;BME280;49858;48.956;9.076;2023-03-13T01:28:53;98157.94;;;9.48;100.00
63715;BME280;49858;48.956;9.076;2023-03-13T01:31:24;98153.59;;;9.67;100.00
63715;BME280;49858;48.956;9.076;2023-03-13T01:33:56;98156.25;;;9.83;100.00
63715;BME280;49858;48.956;9.076;2023-03-13T01:36:24;98147.31;;;9.66;100.00
63715;BME280;49858;48.956;9.076;2023-03-13T01:38:54;98153.00;;;9.77;100.00
63715;BME280;49858;48.956;9.076;2023-03-13T01:41:23;98140.84;;;9.55;100.00
63715;BME280;49858;48.956;9.076;2023-03-13T01:43:51;98142.34;;;9.53;100.00
63715;BME280;49858;48.956;9.076;2023-03-13T01:46:22;98127.25;;;9.85;100.00
63715;BME280;49858;48.956;9.076;2023-03-13T01:49:13;98125.00;;;9.91;100.00
63715;BME280;49858;48.956;9.076;2023-03-13T01:52:03;98114.25;;;9.82;100.00
63715;BME280;49858;48.956;9.076;2023-03-13T01:54:41;98117.03;;;9.63;100.00
63715;BME280;49858;48.956;9.076;2023-03-13T01:57:17;98112.25;;;9.79;100.00
63715;BME280;49858;48.956;9.076;2023-03-13T01:59:48;98107.25;;;10.31;100.00
63715;BME280;49858;48.956;9.076;2023-03-13T02:02:17;98091.59;;;10.12;100.00
63715;BME280;49858;48.956;9.076;2023-03-13T02:04:51;98092.22;;;10.24;100.00
63715;BME280;49858;48.956;9.076;2023-03-13T02:07:23;98096.88;;;9.97;100.00
63715;BME280;49858;48.956;9.076;2023-03-13T02:09:54;98089.16;;;9.61;100.00
63715;BME280;49858;48.956;9.076;2023-03-13T02:12:26;98080.91;;;9.61;100.00
63715;BME280;49858;48.956;9.076;2023-03-13T02:14:58;98089.41;;;9.75;100.00
63715;BME280;49858;48.956;9.076;2023-03-13T02:17:28;98080.34;;;9.52;100.00
63715;BME280;49858;48.956;9.076;2023-03-13T02:19:58;98075.63;;;9.71;100.00
63715;BME280;49858;48.956;9.076;2023-03-13T02:22:31;98070.50;;;10.19;100.00
63715;BME280;49858;48.956;9.076;2023-03-13T02:25:03;98079.63;;;10.01;100.00
63715;BME280;49858;48.956;9.076;2023-03-13T02:27:35;98071.69;;;9.95;100.00
63715;BME280;49858;48.956;9.076;2023-03-13T02:30:04;98074.38;;;10.15;100.00
63715;BME280;49858;48.956;9.076;2023-03-13T02:32:32;98071.22;;;10.39;100.00
63715;BME280;49858;48.956;9.076;2023-03-13T02:35:03;98067.13;;;10.03;100.00
63715;BME280;49858;48.956;9.076;2023-03-13T02:37:34;98065.59;;;10.06;100.00
63715;BME280;49858;48.956;9.076;2023-03-13T02:40:12;98063.16;;;10.01;100.00
63715;BME280;49858;48.956;9.076;2023-03-13T02:42:44;98050.66;;;10.07;100.00
63715;BME280;49858;48.956;9.076;2023-03-13T02:45:13;98046.34;;;10.29;100.00
63715;BME280;49858;48.956;9.076;2023-03-13T02:47:42;98045.09;;;10.53;100.00
63715;BME280;49858;48.956;9.076;2023-03-13T02:50:12;98042.19;;;10.15;100.00
63715;BME280;49858;48.956;9.076;2023-03-13T02:52:42;98040.16;;;10.35;100.00
63715;BME280;49858;48.956;9.076;2023-03-13T02:55:15;98032.53;;;10.52;100.00
63715;BME280;49858;48.956;9.076;2023-03-13T02:57:45;98028.78;;;10.63;100.00
63715;BME280;49858;48.956;9.076;2023-03-13T03:00:15;98014.97;;;10.60;100.00
63715;BME280;49858;48.956;9.076;2023-03-13T03:02:44;98022.38;;;10.29;100.00
63715;BME280;49858;48.956;9.076;2023-03-13T03:05:13;98014.44;;;10.51;100.00
63715;BME280;49858;48.956;9.076;2023-03-13T03:07:41;98013.19;;;10.74;100.00
63715;BME280;49858;48.956;9.076;2023-03-13T03:10:10;98012.28;;;10.67;100.00
63715;BME280;49858;48.956;9.076;2023-03-13T03:12:39;98011.34;;;10.86;100.00
63715;BME280;49858;48.956;9.076;2023-03-13T03:15:10;98010.88;;;10.80;100.00
63715;BME280;49858;48.956;9.076;2023-03-13T03:17:42;98013.81;;;10.94;100.00
63715;BME280;49858;48.956;9.076;2023-03-13T03:20:10;98013.56;;;11.07;100.00
63715;BME280;49858;48.956;9.076;2023-03-13T03:22:41;98015.00;;;10.93;100.00
63715;BME280;49858;48.956;9.076;2023-03-13T03:25:09;98018.44;;;10.57;100.00
63715;BME280;49858;48.956;9.076;2023-03-13T03:27:37;98010.47;;;10.48;100.00
63715;BME280;49858;48.956;9.076;2023-03-13T03:30:09;98001.44;;;10.47;100.00
63715;BME280;49858;48.956;9.076;2023-03-13T03:32:38;97994.44;;;10.54;100.00
63715;BME280;49858;48.956;9.076;2023-03-13T03:35:06;97991.91;;;10.71;100.00
63715;BME280;49858;48.956;9.076;2023-03-13T03:37:34;97993.03;;;10.67;100.00
63715;BME280;49858;48.956;9.076;2023-03-13T03:40:04;97991.25;;;10.82;100.00
63715;BME280;49858;48.956;9.076;2023-03-13T03:42:32;97991.66;;;10.50;100.00
63715;BME280;49858;48.956;9.076;2023-03-13T03:45:00;97986.19;;;10.54;100.00
63715;BME280;49858;48.956;9.076;2023-03-13T03:47:30;97979.47;;;10.81;100.00
63715;BME280;49858;48.956;9.076;2023-03-13T03:49:59;97970.63;;;10.98;100.00
63715;BME280;49858;48.956;9.076;2023-03-13T03:52:34;97970.72;;;11.09;100.00
63715;BME280;49858;48.956;9.076;2023-03-13T03:55:01;97974.75;;;11.19;100.00
63715;BME280;49858;48.956;9.076;2023-03-13T03:57:30;97965.53;;;11.00;100.00
63715;BME280;49858;48.956;9.076;2023-03-13T03:59:58;97961.56;;;10.98;100.00
63715;BME280;49858;48.956;9.076;2023-03-13T04:02:26;97968.03;;;10.45;100.00
63715;BME280;49858;48.956;9.076;2023-03-13T04:04:55;97969.66;;;10.50;100.00
63715;BME280;49858;48.956;9.076;2023-03-13T04:07:29;97960.13;;;10.44;100.00
63715;BME280;49858;48.956;9.076;2023-03-13T04:09:58;97954.13;;;10.65;100.00
63715;BME280;49858;48.956;9.076;2023-03-13T04:12:33;97960.63;;;10.83;100.00
63715;BME280;49858;48.956;9.076;2023-03-13T04:15:02;97956.25;;;11.16;100.00
63715;BME280;49858;48.956;9.076;2023-03-13T04:17:31;97951.75;;;11.00;100.00
63715;BME280;49858;48.956;9.076;2023-03-13T04:20:00;97939.75;;;11.16;100.00
63715;BME280;49858;48.956;9.076;2023-03-13T04:22:29;97939.22;;;11.03;100.00
63715;BME280;49858;48.956;9.076;2023-03-13T04:24:58;97939.94;;;10.96;100.00
63715;BME280;49858;48.956;9.076;2023-03-13T04:27:28;97931.00;;;11.07;100.00
63715;BME280;49858;48.956;9.076;2023-03-13T04:29:56;97933.16;;;11.27;100.00
63715;BME280;49858;48.956;9.076;2023-03-13T04:32:36;97937.03;;;10.82;100.00
63715;BME280;49858;48.956;9.076;2023-03-13T04:35:22;97928.66;;;11.09;100.00
63715;BME280;49858;48.956;9.076;2023-03-13T04:38:09;97935.97;;;10.94;100.00
63715;BME280;49858;48.956;9.076;2023-03-13T04:40:55;97939.00;;;11.22;100.00
63715;BME280;49858;48.956;9.076;2023-03-13T04:43:45;97927.06;;;11.08;100.00
63715;BME280;49858;48.956;9.076;2023-03-13T04:46:33;97923.38;;;11.30;100.00
63715;BME280;49858;48.956;9.076;2023-03-13T04:49:22;97936.81;;;11.42;100.00
63715;BME280;49858;48.956;9.076;2023-03-13T04:52:15;97932.06;;;11.36;100.00
63715;BME280;49858;48.956;9.076;2023-03-13T04:54:59;97916.97;;;11.70;100.00
63715;BME280;49858;48.956;9.076;2023-03-13T04:57:47;97927.53;;;11.58;100.00
63715;BME280;49858;48.956;9.076;2023-03-13T05:00:25;97919.19;;;11.50;100.00
63715;BME280;49858;48.956;9.076;2023-03-13T05:03:14;97929.75;;;11.41;100.00
63715;BME280;49858;48.956;9.076;2023-03-13T05:06:03;97930.59;;;11.52;100.00
63715;BME280;49858;48.956;9.076;2023-03-13T05:08:55;97919.81;;;11.81;100.00
63715;BME280;49858;48.956;9.076;2023-03-13T05:11:52;97926.72;;;11.54;100.00
63715;BME280;49858;48.956;9.076;2023-03-13T05:14:42;97910.84;;;11.88;100.00
63715;BME280;49858;48.956;9.076;2023-03-13T05:17:33;97917.41;;;11.76;100.00
63715;BME280;49858;48.956;9.076;2023-03-13T05:20:19;97912.00;;;11.83;100.00
63715;BME280;49858;48.956;9.076;2023-03-13T05:22:58;97914.94;;;11.60;100.00
63715;BME280;49858;48.956;9.076;2023-03-13T05:25:46;97916.97;;;11.70;100.00
63715;BME280;49858;48.956;9.076;2023-03-13T05:28:14;97909.09;;;11.69;100.00
63715;BME280;49858;48.956;9.076;2023-03-13T05:30:47;97911.19;;;11.83;100.00
63715;BME280;49858;48.956;9.076;2023-03-13T05:33:35;97902.47;;;11.77;100.00
63715;BME280;49858;48.956;9.076;2023-03-13T05:36:27;97916.63;;;11.72;100.00
63715;BME280;49858;48.956;9.076;2023-03-13T05:38:55;97906.94;;;11.92;100.00
63715;BME280;49858;48.956;9.076;2023-03-13T05:41:43;97907.34;;;11.98;100.00
63715;BME280;49858;48.956;9.076;2023-03-13T05:44:17;97914.00;;;11.86;100.00
63715;BME280;49858;48.956;9.076;2023-03-13T05:46:54;97894.78;;;12.04;100.00
63715;BME280;49858;48.956;9.076;2023-03-13T05:49:51;97896.91;;;11.70;100.00
63715;BME280;49858;48.956;9.076;2023-03-13T05:52:52;97906.50;;;11.87;100.00
63715;BME280;49858;48.956;9.076;2023-03-13T05:55:52;97910.41;;;11.82;100.00
63715;BME280;49858;48.956;9.076;2023-03-13T05:58:48;97892.88;;;12.15;100.00
63715;BME280;49858;48.956;9.076;2023-03-13T06:01:36;97896.78;;;12.07;100.00
63715;BME280;49858;48.956;9.076;2023-03-13T06:04:17;97883.88;;;12.25;100.00
63715;BME280;49858;48.956;9.076;2023-03-13T06:06:45;97901.44;;;11.99;100.00
63715;BME280;49858;48.956;9.076;2023-03-13T06:09:15;97901.91;;;12.05;100.00
63715;BME280;49858;48.956;9.076;2023-03-13T06:11:43;97895.16;;;12.02;100.00
63715;BME280;49858;48.956;9.076;2023-03-13T06:14:16;97901.06;;;11.97;100.00
63715;BME280;49858;48.956;9.076;2023-03-13T06:17:02;97896.66;;;12.66;100.00
63715;BME280;49858;48.956;9.076;2023-03-13T06:19:30;97877.63;;;12.46;100.00
63715;BME280;49858;48.956;9.076;2023-03-13T06:21:58;97875.97;;;12.27;100.00
63715;BME280;49858;48.956;9.076;2023-03-13T06:24:26;97871.41;;;12.64;100.00
63715;BME280;49858;48.956;9.076;2023-03-13T06:26:54;97882.38;;;12.46;100.00
63715;BME280;49858;48.956;9.076;2023-03-13T06:29:23;97884.38;;;12.52;100.00
63715;BME280;49858;48.956;9.076;2023-03-13T06:31:51;97872.97;;;12.65;100.00
63715;BME280;49858;48.956;9.076;2023-03-13T06:34:19;97886.16;;;12.13;100.00
63715;BME280;49858;48.956;9.076;2023-03-13T06:36:47;97882.72;;;12.37;100.00
63715;BME280;49858;48.956;9.076;2023-03-13T06:39:14;97882.38;;;12.46;100.00
63715;BME280;49858;48.956;9.076;2023-03-13T06:41:42;97874.41;;;12.26;100.00
63715;BME280;49858;48.956;9.076;2023-03-13T06:44:10;97895.31;;;12.31;100.00
63715;BME280;49858;48.956;9.076;2023-03-13T06:46:39;97895.75;;;12.40;100.00
63715;BME280;49858;48.956;9.076;2023-03-13T06:49:07;97906.44;;;12.56;100.00
63715;BME280;49858;48.956;9.076;2023-03-13T06:51:35;97895.34;;;12.35;100.00
63715;BME280;49858;48.956;9.076;2023-03-13T06:54:03;97901.34;;;12.62;100.00
63715;BME280;49858;48.956;9.076;2023-03-13T06:56:30;97903.38;;;12.86;100.00
63715;BME280;49858;48.956;9.076;2023-03-13T06:58:58;97908.41;;;12.48;100.00
63715;BME280;49858;48.956;9.076;2023-03-13T07:01:26;97899.75;;;12.57;100.00
63715;BME280;49858;48.956;9.076;2023-03-13T07:03:55;97913.16;;;12.51;100.00
63715;BME280;49858;48.956;9.076;2023-03-13T07:06:23;97917.84;;;12.47;100.00
63715;BME280;49858;48.956;9.076;2023-03-13T07:08:52;97916.72;;;12.59;100.00
63715;BME280;49858;48.956;9.076;2023-03-13T07:11:20;97918.66;;;12.55;100.00
63715;BME280;49858;48.956;9.076;2023-03-13T07:13:47;97905.69;;;12.70;100.00
63715;BME280;49858;48.956;9.076;2023-03-13T07:16:15;97913.28;;;13.12;100.00
63715;BME280;49858;48.956;9.076;2023-03-13T07:18:43;97909.31;;;12.92;100.00
63715;BME280;49858;48.956;9.076;2023-03-13T07:21:12;97909.28;;;12.81;100.00
63715;BME280;49858;48.956;9.076;2023-03-13T07:23:42;97904.69;;;13.32;100.00
63715;BME280;49858;48.956;9.076;2023-03-13T07:26:11;97898.31;;;13.17;100.00
63715;BME280;49858;48.956;9.076;2023-03-13T07:28:40;97898.75;;;13.40;100.00
63715;BME280;49858;48.956;9.076;2023-03-13T07:31:11;97897.88;;;12.93;100.00
63715;BME280;49858;48.956;9.076;2023-03-13T07:33:40;97888.44;;;13.16;100.00
63715;BME280;49858;48.956;9.076;2023-03-13T07:36:08;97889.66;;;13.54;100.00
63715;BME280;49858;48.956;9.076;2023-03-13T07:38:38;97882.56;;;13.42;100.00
63715;BME280;49858;48.956;9.076;2023-03-13T07:41:06;97873.88;;;13.19;100.00
63715;BME280;49858;48.956;9.076;2023-03-13T07:43:34;97873.09;;;13.25;100.00
63715;BME280;49858;48.956;9.076;2023-03-13T07:46:04;97867.19;;;13.41;100.00
63715;BME280;49858;48.956;9.076;2023-03-13T07:48:34;97862.84;;;13.33;100.00
63715;BME280;49858;48.956;9.076;2023-03-13T07:51:03;97873.88;;;13.44;100.00
63715;BME280;49858;48.956;9.076;2023-03-13T07:53:31;97869.13;;;13.16;100.00
63715;BME280;49858;48.956;9.076;2023-03-13T07:56:03;97869.16;;;13.23;100.00
63715;BME280;49858;48.956;9.076;2023-03-13T07:58:33;97872.28;;;13.14;100.00
63715;BME280;49858;48.956;9.076;2023-03-13T08:01:07;97871.91;;;13.48;100.00
63715;BME280;49858;48.956;9.076;2023-03-13T08:03:35;97860.84;;;13.66;100.00
63715;BME280;49858;48.956;9.076;2023-03-13T08:06:06;97848.97;;;13.79;100.00
63715;BME280;49858;48.956;9.076;2023-03-13T08:08:35;97841.53;;;13.51;100.00
63715;BME280;49858;48.956;9.076;2023-03-13T08:11:10;97844.19;;;13.87;100.00
63715;BME280;49858;48.956;9.076;2023-03-13T08:13:40;97837.91;;;13.83;100.00
63715;BME280;49858;48.956;9.076;2023-03-13T08:16:10;97835.13;;;13.90;100.00
63715;BME280;49858;48.956;9.076;2023-03-13T08:18:39;97821.66;;;13.99;100.00
63715;BME280;49858;48.956;9.076;2023-03-13T08:21:10;97816.97;;;13.89;100.00
63715;BME280;49858;48.956;9.076;2023-03-13T08:23:38;97831.91;;;14.10;100.00
63715;BME280;49858;48.956;9.076;2023-03-13T08:26:09;97827.19;;;13.99;100.00
63715;BME280;49858;48.956;9.076;2023-03-13T08:28:38;97836.16;;;14.32;100.00
63715;BME280;49858;48.956;9.076;2023-03-13T08:31:07;97845.34;;;14.04;100.00
63715;BME280;49858;48.956;9.076;2023-03-13T08:33:35;97844.41;;;14.50;100.00
63715;BME280;49858;48.956;9.076;2023-03-13T08:36:14;97835.75;;;14.33;100.00
63715;BME280;49858;48.956;9.076;2023-03-13T08:38:43;97840.22;;;14.02;100.00
63715;BME280;49858;48.956;9.076;2023-03-13T08:41:15;97846.97;;;13.91;100.00
63715;BME280;49858;48.956;9.076;2023-03-13T08:43:43;97835.00;;;14.22;100.00
63715;BME280;49858;48.956;9.076;2023-03-13T08:46:11;97835.72;;;14.48;100.00
63715;BME280;49858;48.956;9.076;2023-03-13T08:48:40;97838.16;;;14.24;100.00
63715;BME280;49858;48.956;9.076;2023-03-13T08:51:09;97834.16;;;14.36;100.00
63715;BME280;49858;48.956;9.076;2023-03-13T08:53:38;97827.84;;;14.36;100.00
63715;BME280;49858;48.956;9.076;2023-03-13T08:56:08;97829.03;;;14.35;100.00
63715;BME280;49858;48.956;9.076;2023-03-13T08:58:38;97830.28;;;14.16;100.00
63715;BME280;49858;48.956;9.076;2023-03-13T09:01:08;97823.94;;;14.22;100.00
63715;BME280;49858;48.956;9.076;2023-03-13T09:03:36;97832.97;;;14.37;100.00
63715;BME280;49858;48.956;9.076;2023-03-13T09:06:05;97835.69;;;14.51;100.00
63715;BME280;49858;48.956;9.076;2023-03-13T09:08:34;97848.00;;;14.36;100.00
63715;BME280;49858;48.956;9.076;2023-03-13T09:11:03;97862.56;;;14.47;100.00
63715;BME280;49858;48.956;9.076;2023-03-13T09:13:33;97831.66;;;14.63;100.00
63715;BME280;49858;48.956;9.076;2023-03-13T09:16:04;97814.59;;;14.75;100.00
63715;BME280;49858;48.956;9.076;2023-03-13T09:18:33;97857.31;;;14.78;100.00
63715;BME280;49858;48.956;9.076;2023-03-13T09:21:07;97799.84;;;14.96;100.00
63715;BME280;49858;48.956;9.076;2023-03-13T09:23:35;97820.00;;;14.97;100.00
63715;BME280;49858;48.956;9.076;2023-03-13T09:26:04;97814.28;;;15.15;100.00
63715;BME280;49858;48.956;9.076;2023-03-13T09:28:32;97829.28;;;15.24;100.00
63715;BME280;49858;48.956;9.076;2023-03-13T09:31:09;97840.16;;;14.97;100.00
63715;BME280;49858;48.956;9.076;2023-03-13T09:33:37;97844.88;;;15.00;100.00
63715;BME280;49858;48.956;9.076;2023-03-13T09:36:06;97842.00;;;15.15;100.00
63715;BME280;49858;48.956;9.076;2023-03-13T09:38:35;97854.78;;;15.01;100.00
63715;BME280;49858;48.956;9.076;2023-03-13T09:41:14;97825.44;;;15.07;100.00
63715;BME280;49858;48.956;9.076;2023-03-13T09:43:49;97848.59;;;15.35;100.00
63715;BME280;49858;48.956;9.076;2023-03-13T09:46:22;97808.00;;;15.55;100.00
63715;BME280;49858;48.956;9.076;2023-03-13T09:48:54;97806.09;;;15.49;100.00
63715;BME280;49858;48.956;9.076;2023-03-13T09:51:25;97800.47;;;15.56;100.00
63715;BME280;49858;48.956;9.076;2023-03-13T09:53:58;97799.78;;;15.48;100.00
63715;BME280;49858;48.956;9.076;2023-03-13T09:56:29;97795.72;;;15.56;100.00
63715;BME280;49858;48.956;9.076;2023-03-13T09:59:03;97806.22;;;15.34;100.00
63715;BME280;49858;48.956;9.076;2023-03-13T10:01:38;97783.53;;;15.47;100.00
63715;BME280;49858;48.956;9.076;2023-03-13T10:04:14;97790.31;;;15.42;100.00
63715;BME280;49858;48.956;9.076;2023-03-13T10:06:49;97783.53;;;15.47;100.00
63715;BME280;49858;48.956;9.076;2023-03-13T10:09:19;97786.41;;;15.81;100.00
63715;BME280;49858;48.956;9.076;2023-03-13T10:11:57;97777.66;;;16.13;100.00
63715;BME280;49858;48.956;9.076;2023-03-13T10:14:30;97782.97;;;16.61;100.00
63715;BME280;49858;48.956;9.076;2023-03-13T10:17:04;97775.31;;;16.42;100.00
63715;BME280;49858;48.956;9.076;2023-03-13T10:19:39;97763.88;;;16.36;100.00
63715;BME280;49858;48.956;9.076;2023-03-13T10:22:12;97781.50;;;16.23;100.00
63715;BME280;49858;48.956;9.076;2023-03-13T10:24:45;97756.03;;;16.58;100.00
63715;BME280;49858;48.956;9.076;2023-03-13T10:27:17;97766.34;;;16.31;100.00
63715;BME280;49858;48.956;9.076;2023-03-13T10:29:44;97763.28;;;16.52;100.00
63715;BME280;49858;48.956;9.076;2023-03-13T10:32:15;97760.31;;;16.36;100.00
63715;BME280;49858;48.956;9.076;2023-03-13T10:34:49;97762.72;;;16.92;100.00
63715;BME280;49858;48.956;9.076;2023-03-13T10:37:20;97786.44;;;16.42;100.00
63715;BME280;49858;48.956;9.076;2023-03-13T10:39:48;97761.56;;;16.89;100.00
63715;BME280;49858;48.956;9.076;2023-03-13T10:42:22;97765.22;;;16.82;100.00
63715;BME280;49858;48.956;9.076;2023-03-13T10:44:58;97768.63;;;17.17;100.00
63715;BME280;49858;48.956;9.076;2023-03-13T10:47:32;97763.72;;;17.48;100.00
63715;BME280;49858;48.956;9.076;2023-03-13T10:50:01;97746.75;;;17.43;100.00
63715;BME280;49858;48.956;9.076;2023-03-13T10:52:35;97746.69;;;17.46;100.00
63715;BME280;49858;48.956;9.076;2023-03-13T10:55:10;97744.56;;;17.30;100.00
63715;BME280;49858;48.956;9.076;2023-03-13T10:57:40;97744.22;;;17.28;100.00
63715;BME280;49858;48.956;9.076;2023-03-13T11:00:34;97748.63;;;17.26;100.00
63715;BME280;49858;48.956;9.076;2023-03-13T11:03:06;97752.38;;;17.39;100.00
63715;BME280;49858;48.956;9.076;2023-03-13T11:05:41;97764.38;;;17.13;100.00
63715;BME280;49858;48.956;9.076;2023-03-13T11:08:27;97760.22;;;17.21;100.00
63715;BME280;49858;48.956;9.076;2023-03-13T11:10:57;97740.13;;;17.13;100.00
63715;BME280;49858;48.956;9.076;2023-03-13T11:13:28;97732.09;;;17.19;100.00
63715;BME280;49858;48.956;9.076;2023-03-13T11:16:15;97726.53;;;17.19;100.00
63715;BME280;49858;48.956;9.076;2023-03-13T11:19:01;97726.47;;;17.66;100.00
63715;BME280;49858;48.956;9.076;2023-03-13T11:21:38;97721.34;;;17.41;100.00
63715;BME280;49858;48.956;9.076;2023-03-13T11:24:14;97720.63;;;18.00;100.00
63715;BME280;49858;48.956;9.076;2023-03-13T11:26:49;97730.75;;;17.27;100.00
63715;BME280;49858;48.956;9.076;2023-03-13T11:29:37;97700.81;;;17.34;100.00
63715;BME280;49858;48.956;9.076;2023-03-13T11:32:16;97705.38;;;17.25;100.00
63715;BME280;49858;48.956;9.076;2023-03-13T11:34:53;97697.59;;;17.36;100.00
63715;BME280;49858;48.956;9.076;2023-03-13T11:37:27;97676.97;;;17.57;100.00
63715;BME280;49858;48.956;9.076;2023-03-13T11:40:02;97682.69;;;17.70;100.00
63715;BME280;49858;48.956;9.076;2023-03-13T11:43:00;97676.63;;;18.11;100.00
63715;BME280;49858;48.956;9.076;2023-03-13T11:46:00;97666.47;;;18.04;100.00
63715;BME280;49858;48.956;9.076;2023-03-13T11:51:27;97646.91;;;18.24;100.00
63715;BME280;49858;48.956;9.076;2023-03-13T11:56:54;97637.81;;;18.40;100.00
63715;BME280;49858;48.956;9.076;2023-03-13T11:59:35;97616.72;;;18.06;100.00
63715;BME280;49858;48.956;9.076;2023-03-13T12:02:17;97614.66;;;18.27;100.00
63715;BME280;49858;48.956;9.076;2023-03-13T12:04:51;97622.69;;;18.74;100.00
63715;BME280;49858;48.956;9.076;2023-03-13T12:07:26;97619.97;;;18.70;100.00
63715;BME280;49858;48.956;9.076;2023-03-13T12:09:59;97610.31;;;18.42;100.00
63715;BME280;49858;48.956;9.076;2023-03-13T12:12:36;97602.03;;;18.71;100.00
63715;BME280;49858;48.956;9.076;2023-03-13T12:15:16;97591.28;;;19.02;100.00
63715;BME280;49858;48.956;9.076;2023-03-13T12:17:49;97582.78;;;18.93;100.00
63715;BME280;49858;48.956;9.076;2023-03-13T12:20:22;97570.84;;;18.93;100.00
63715;BME280;49858;48.956;9.076;2023-03-13T12:22:59;97561.19;;;19.39;100.00
63715;BME280;49858;48.956;9.076;2023-03-13T12:25:38;97546.56;;;19.35;99.22
63715;BME280;49858;48.956;9.076;2023-03-13T12:28:19;97541.94;;;19.70;99.58
63715;BME280;49858;48.956;9.076;2023-03-13T12:30:55;97547.66;;;19.37;99.55
63715;BME280;49858;48.956;9.076;2023-03-13T12:33:29;97518.97;;;18.66;100.00
63715;BME280;49858;48.956;9.076;2023-03-13T12:36:03;97526.00;;;19.96;98.09
63715;BME280;49858;48.956;9.076;2023-03-13T12:38:38;97511.31;;;19.41;98.31
63715;BME280;49858;48.956;9.076;2023-03-13T12:41:23;97508.31;;;19.48;98.50
63715;BME280;49858;48.956;9.076;2023-03-13T12:43:53;97507.56;;;19.60;98.05
63715;BME280;49858;48.956;9.076;2023-03-13T12:46:40;97487.56;;;20.00;95.56
63715;BME280;49858;48.956;9.076;2023-03-13T12:49:26;97479.16;;;20.13;96.93
63715;BME280;49858;48.956;9.076;2023-03-13T12:52:12;97479.44;;;19.93;96.94
63715;BME280;49858;48.956;9.076;2023-03-13T12:54:55;97459.03;;;20.65;93.82
63715;BME280;49858;48.956;9.076;2023-03-13T12:57:47;97452.81;;;20.14;96.27
63715;BME280;49858;48.956;9.076;2023-03-13T13:00:25;97456.22;;;19.96;96.42
63715;BME280;49858;48.956;9.076;2023-03-13T13:03:08;97454.22;;;19.71;95.99
63715;BME280;49858;48.956;9.076;2023-03-13T13:05:58;97443.81;;;19.46;94.71
63715;BME280;49858;48.956;9.076;2023-03-13T13:08:26;97435.13;;;19.31;97.64
63715;BME280;49858;48.956;9.076;2023-03-13T13:17:27;97416.72;;;19.47;97.34
63715;BME280;49858;48.956;9.076;2023-03-13T13:19:55;97414.50;;;19.41;96.95
63715;BME280;49858;48.956;9.076;2023-03-13T13:22:45;97391.44;;;20.01;98.19
63715;BME280;49858;48.956;9.076;2023-03-13T13:25:29;97385.69;;;19.70;96.34
63715;BME280;49858;48.956;9.076;2023-03-13T13:28:09;97387.50;;;19.77;96.68
63715;BME280;49858;48.956;9.076;2023-03-13T13:30:38;97372.41;;;19.74;94.26
63715;BME280;49858;48.956;9.076;2023-03-13T13:33:37;97347.56;;;20.02;94.50
63715;BME280;49858;48.956;9.076;2023-03-13T13:36:29;97357.00;;;19.57;95.74
63715;BME280;49858;48.956;9.076;2023-03-13T13:38:57;97351.44;;;19.70;96.31